Latest Weather Observations for Pound Creek

IDV60801

Issued at 5:02 pm EST Monday 29 August 2016 (issued every 30 minutes, with the page automatically refreshed every 10 minutes)

About weather observations | Map of weather stations | Latest weather observations for VIC | Other Formats
Station Details ID: 085099 Name: POUND CREEK Lat: -38.63 Lon: 145.81 Height: 3.0 m
Data from the previous 72 hours. | See also: Recent months at Pound Creek
Date/Time
EST
Temp
°C
App
Temp
°C
Dew
Point
°C
Rel
Hum
%
Delta-T
°C
Wind Press
QNH
hPa
Press
MSL
hPa
Rain since
9am
mm
Dir  Spd
km/h
Gust
km/h
Spd
kts
Gust
kts
29/05:00pm 17.4 17.1 10.1 62 3.8 ESE 2 4 1 2 1022.4 1022.4 0.0
29/04:30pm 17.4 16.1 9.8 61 4.0 E 7 9 4 5 1022.2 1022.2 0.0
29/04:00pm 16.6 15.9 10.2 66 3.4 SE 4 6 2 3 1022.1 1022.1 0.0
29/03:30pm 17.1 16.0 10.0 63 3.7 SSE 6 7 3 4 1022.0 1022.0 0.0
29/03:00pm 17.1 17.0 9.5 61 4.0 CALM 0 4 0 2 1022.3 1022.3 0.0
29/02:30pm 17.8 16.1 8.4 54 4.8 SSE 7 11 4 6 1022.3 1022.3 0.0
29/02:00pm 17.8 17.0 9.7 59 4.2 WSW 4 7 2 4 1022.4 1022.4 0.0
29/01:30pm 16.6 15.1 8.3 58 4.2 NW 6 9 3 5 1022.6 1022.6 0.0
29/01:00pm 16.7 15.7 8.7 59 4.1 NNW 4 7 2 4 1022.9 1022.9 0.0
29/12:30pm 16.8 14.4 7.2 53 4.8 NW 9 19 5 10 1023.2 1023.2 0.0
29/12:00pm 17.6 13.9 6.5 48 5.5 NW 15 20 8 11 1023.7 1023.7 0.0
29/11:30am 17.6 14.8 7.1 50 5.2 NW 11 20 6 11 1024.0 1024.0 0.0
29/11:00am 17.4 14.3 7.2 51 5.1 NW 13 22 7 12 1024.4 1024.4 0.0
29/10:30am 16.3 14.9 8.8 61 3.8 N 6 11 3 6 1024.6 1024.6 0.0
29/10:00am 15.1 13.7 8.8 66 3.2 N 6 9 3 5 1024.7 1024.7 0.0
29/09:30am 13.5 11.7 7.3 66 3.0 NNE 6 7 3 4 1025.0 1025.0 0.0
29/09:00am 11.3 9.6 8.2 81 1.5 E 7 9 4 5 1025.0 1025.0 0.0
29/08:30am 9.0 8.3 8.4 96 0.3 N 2 4 1 2 1024.8 1024.8 0.0
29/08:00am 6.7 5.5 6.4 98 0.1 E 2 6 1 3 1024.6 1024.6 0.0
29/07:30am 3.6 1.8 3.3 98 0.1 ESE 2 4 1 2 1024.4 1024.4 0.0
29/07:00am 2.0 0.3 1.6 97 0.2 CALM 0 2 0 1 1024.1 1024.1 0.0
29/06:30am 2.4 0.7 2.0 97 0.2 CALM 0 2 0 1 1023.6 1023.6 0.0
29/06:00am 2.4 0.7 2.0 97 0.2 CALM 0 0 0 0 1023.2 1023.2 0.0
29/05:30am 3.0 1.4 2.4 96 0.2 CALM 0 0 0 0 1023.0 1023.0 0.0
29/05:00am 4.2 2.1 3.8 97 0.2 NNE 4 7 2 4 1022.8 1022.8 0.0
29/04:30am 2.8 1.2 2.4 97 0.2 CALM 0 4 0 2 1022.6 1022.6 0.0
29/04:00am 3.4 1.9 3.0 97 0.2 CALM 0 0 0 0 1022.5 1022.5 0.0
29/03:30am 3.3 1.8 2.9 97 0.2 CALM 0 0 0 0 1022.3 1022.3 0.0
29/03:00am 3.3 1.8 2.9 97 0.2 CALM 0 0 0 0 1022.4 1022.4 0.0
29/02:30am 4.2 2.8 3.8 97 0.2 CALM 0 0 0 0 1022.6 1022.6 0.0
29/02:00am 4.3 3.0 3.9 97 0.2 CALM 0 0 0 0 1022.6 1022.6 0.0
29/01:30am 3.6 2.1 3.0 96 0.2 CALM 0 0 0 0 1022.8 1022.8 0.0
29/01:00am 3.7 1.8 3.1 96 0.2 N 2 4 1 2 1022.6 1022.6 0.0
29/12:30am 5.2 3.3 4.8 97 0.2 NNE 4 6 2 3 1022.5 1022.5 0.0
29/12:00am 5.3 3.4 4.9 97 0.2 NNE 4 6 2 3 1022.5 1022.5 0.0
 
Date/Time
EST
Temp
°C
App
Temp
°C
Dew
Point
°C
Rel
Hum
%
Delta-T
°C
Wind Press
QNH
hPa
Press
MSL
hPa
Rain since
9am
mm
Dir  Spd
km/h
Gust
km/h
Spd
kts
Gust
kts
28/11:30pm 5.0 3.8 4.4 96 0.3 CALM 0 0 0 0 1022.5 1022.5 0.0
28/11:00pm 6.3 4.9 5.7 96 0.3 NNE 2 7 1 4 1022.3 1022.3 0.0
28/10:30pm 6.0 3.8 5.4 96 0.3 N 6 7 3 4 1022.2 1022.2 0.0
28/10:00pm 6.0 4.2 5.4 96 0.3 NNW 4 7 2 4 1022.1 1022.1 0.0
28/09:30pm 6.2 4.8 5.6 96 0.3 N 2 4 1 2 1022.0 1022.0 0.0
28/09:00pm 6.2 5.2 5.5 95 0.3 CALM 0 0 0 0 1021.7 1021.7 0.0
28/08:30pm 7.1 6.3 6.4 95 0.3 CALM 0 0 0 0 1021.4 1021.4 0.0
28/08:00pm 7.8 6.7 6.9 94 0.4 NNE 2 4 1 2 1021.0 1021.0 0.0
28/07:30pm 7.8 7.1 6.9 94 0.4 CALM 0 6 0 3 1020.8 1020.8 0.0
28/07:00pm 9.2 8.1 8.3 94 0.4 E 4 4 2 2 1020.5 1020.5 0.0
28/06:30pm 8.9 8.4 7.7 92 0.6 CALM 0 0 0 0 1020.2 1020.2 0.0
28/06:00pm 10.1 9.4 8.4 89 0.8 SSE 2 2 1 1 1019.9 1019.9 0.0
28/05:30pm 10.3 8.8 8.4 88 0.9 S 6 6 3 3 1019.5 1019.5 0.0
28/05:00pm 11.3 9.7 8.9 85 1.2 S 7 7 4 4 1019.3 1019.3 0.0
28/04:30pm 13.0 11.3 9.8 81 1.6 SSW 9 13 5 7 1019.3 1019.3 0.0
28/04:00pm 13.5 11.3 9.4 76 2.1 SW 11 15 6 8 1019.2 1019.2 0.0
28/03:30pm 13.5 10.9 9.2 75 2.2 SW 13 17 7 9 1019.0 1019.0 0.0
28/03:00pm 13.9 10.8 8.9 72 2.5 SW 15 20 8 11 1019.2 1019.2 0.0
28/02:30pm 14.8 11.8 9.2 69 2.9 SW 15 19 8 10 1019.0 1019.0 0.0
28/02:00pm 14.7 11.7 9.1 69 2.8 SW 15 19 8 10 1019.1 1019.1 0.0
28/01:30pm 14.6 11.2 9.0 69 2.8 SW 17 24 9 13 1019.4 1019.4 0.0
28/01:00pm 14.8 10.6 7.6 62 3.6 WSW 19 22 10 12 1019.5 1019.5 0.0
28/12:30pm 14.7 10.9 7.5 62 3.6 W 17 24 9 13 1019.7 1019.7 0.0
28/12:00pm 14.2 10.8 7.7 65 3.2 WNW 15 24 8 13 1019.9 1019.9 0.0
28/11:30am 13.4 9.0 6.5 63 3.3 W 19 30 10 16 1020.0 1020.0 0.0
28/11:00am 12.9 8.4 6.3 64 3.1 WNW 19 26 10 14 1020.0 1020.0 0.0
28/10:30am 12.6 8.8 6.0 64 3.1 WNW 15 24 8 13 1020.0 1020.0 0.0
28/10:00am 12.1 8.3 5.9 66 2.9 WNW 15 22 8 12 1019.9 1019.9 0.0
28/09:30am 12.0 8.4 5.2 63 3.1 WNW 13 22 7 12 1019.6 1019.6 0.0
28/09:00am 11.5 7.9 5.2 65 2.9 NW 13 22 7 12 1019.4 1019.4 0.2
28/08:30am 11.0 7.9 5.5 69 2.5 NW 11 19 6 10 1019.4 1019.4 0.2
28/08:00am 10.5 7.4 5.5 71 2.3 NW 11 17 6 9 1019.2 1019.2 0.2
28/07:30am 10.2 7.1 5.4 72 2.2 NW 11 19 6 10 1019.2 1019.2 0.0
28/07:00am 10.6 7.4 5.2 69 2.5 WNW 11 20 6 11 1018.9 1018.9 0.0
28/06:30am 10.9 5.6 5.2 68 2.6 WNW 22 30 12 16 1018.6 1018.6 0.0
28/06:00am 11.6 6.7 4.3 61 3.3 WNW 19 33 10 18 1018.0 1018.0 0.0
28/05:30am 11.9 6.4 3.9 58 3.6 NW 22 37 12 20 1017.3 1017.3 0.0
28/05:00am 11.9 6.4 3.9 58 3.6 NW 22 37 12 20 1016.9 1016.9 0.0
28/04:30am 11.9 7.0 4.2 59 3.5 NW 19 33 10 18 1016.8 1016.8 0.0
28/04:00am 11.9 6.8 3.9 58 3.6 NW 20 33 11 18 1016.7 1016.7 0.0
28/03:30am 11.9 7.0 3.9 58 3.6 NW 19 32 10 17 1016.6 1016.6 0.0
28/03:00am 12.1 7.0 3.9 57 3.7 NNW 20 37 11 20 1016.5 1016.5 0.0
28/02:30am 11.7 6.2 4.2 60 3.4 NNW 22 35 12 19 1016.3 1016.3 0.0
28/02:00am 11.5 6.0 4.0 60 3.3 NNW 22 33 12 18 1016.6 1016.6 0.0
28/01:30am 11.5 6.6 4.3 61 3.2 NW 19 37 10 20 1016.9 1016.9 0.0
28/01:00am 11.5 6.5 4.5 62 3.2 NNW 20 33 11 18 1016.7 1016.7 0.0
28/12:30am 11.1 6.1 4.6 64 2.9 NNW 20 35 11 19 1016.8 1016.8 0.0
28/12:00am 11.2 5.8 4.4 63 3.0 NNW 22 37 12 20 1017.0 1017.0 0.0
 
Date/Time
EST
Temp
°C
App
Temp
°C
Dew
Point
°C
Rel
Hum
%
Delta-T
°C
Wind Press
QNH
hPa
Press
MSL
hPa
Rain since
9am
mm
Dir  Spd
km/h
Gust
km/h
Spd
kts
Gust
kts
27/11:30pm 11.2 6.4 4.4 63 3.1 NNW 19 33 10 18 1017.1 1017.1 0.0
27/11:00pm 11.3 6.3 4.5 63 3.1 NNW 20 32 11 17 1017.3 1017.3 0.0
27/10:30pm 11.4 6.4 4.8 64 3.0 NNW 20 35 11 19 1017.5 1017.5 0.0
27/10:00pm 11.6 6.6 4.8 63 3.1 NNW 20 39 11 21 1017.6 1017.6 0.0
27/09:30pm 11.4 6.5 5.1 65 2.9 NNW 20 33 11 18 1018.4 1018.4 0.0
27/09:00pm 11.5 6.6 4.9 64 3.0 NW 20 43 11 23 1018.5 1018.5 0.0
27/08:30pm 11.8 6.8 4.8 62 3.2 NW 20 39 11 21 1018.1 1018.1 0.0
27/08:00pm 11.9 7.1 4.6 61 3.3 NNW 19 33 10 18 1017.9 1017.9 0.0
27/07:30pm 11.9 7.4 4.4 60 3.4 NW 17 33 9 18 1018.1 1018.1 0.0
27/07:00pm 11.5 7.9 4.9 64 3.0 NW 13 24 7 13 1017.9 1017.9 0.0
27/06:30pm 10.9 8.7 6.1 72 2.2 NNW 7 9 4 5 1017.7 1017.7 0.0
27/06:00pm 10.9 8.9 6.1 72 2.2 NNW 6 9 3 5 1017.6 1017.6 0.0
27/05:30pm 11.8 9.7 5.7 66 2.8 NW 6 9 3 5 1017.5 1017.5 0.0
27/05:00pm 12.4 10.2 6.2 66 2.9 NW 7 13 4 7 1017.3 1017.3 0.0
27/04:30pm 12.0 9.4 6.3 68 2.7 W 9 11 5 6 1017.5 1017.5 0.0
27/04:00pm 12.3 8.7 5.0 61 3.3 WNW 13 20 7 11 1017.4 1017.4 0.0
27/03:30pm 12.8 8.9 5.2 60 3.5 WNW 15 22 8 12 1017.6 1017.6 0.0
27/03:00pm 12.8 7.2 5.5 61 3.4 W 24 33 13 18 1018.0 1018.0 0.0
27/02:30pm 13.1 8.7 4.8 57 3.8 NW 17 26 9 14 1018.4 1018.4 0.0
27/02:00pm 12.9 8.1 4.6 57 3.8 WNW 19 32 10 17 1018.7 1018.7 0.0
27/01:30pm 13.3 6.2 3.7 52 4.3 WNW 30 44 16 24 1018.7 1018.7 0.0
27/01:22pm 12.6 5.8 3.0 52 4.2 WNW 28 46 15 25 1018.8 1018.8 0.0
27/01:00pm 13.2 8.1 4.1 54 4.1 NW 20 39 11 21 1019.0 1019.0 0.0
27/12:30pm 12.8 7.4 4.5 57 3.8 NW 22 41 12 22 1019.6 1019.6 0.0
27/12:00pm 13.3 8.1 5.5 59 3.6 NW 22 37 12 20 1020.0 1020.0 0.0
27/11:30am 12.0 7.0 4.7 61 3.3 WNW 20 35 11 19 1020.3 1020.3 0.0
27/11:00am 12.8 8.1 5.2 60 3.5 NW 19 33 10 18 1020.3 1020.3 0.0
27/10:30am 12.2 7.3 5.1 62 3.3 NW 20 33 11 18 1020.8 1020.8 0.0
27/10:00am 11.4 7.1 5.1 65 2.9 NNW 17 33 9 18 1020.4 1020.4 0.0
27/09:30am 11.1 6.8 5.4 68 2.6 NNW 17 32 9 17 1020.8 1020.8 0.0
27/09:00am 10.9 6.3 5.7 70 2.4 NW 19 30 10 16 1021.0 1021.0 0.2
27/08:30am 10.4 6.6 5.8 73 2.1 NW 15 24 8 13 1021.0 1021.0 0.2
27/08:00am 9.2 5.6 5.0 75 1.9 NW 13 20 7 11 1021.1 1021.1 0.2
27/07:30am 8.0 4.7 4.6 79 1.5 NW 11 19 6 10 1021.0 1021.0 0.2
27/07:00am 7.3 4.3 4.1 80 1.4 NNW 9 15 5 8 1020.7 1020.7 0.2
27/06:30am 7.5 4.2 4.3 80 1.4 NNW 11 17 6 9 1020.5 1020.5 0.2
27/06:00am 7.5 4.6 4.5 81 1.3 NW 9 15 5 8 1020.4 1020.4 0.2
27/05:30am 7.5 5.0 4.6 82 1.3 NW 7 13 4 7 1020.2 1020.2 0.2
27/05:00am 7.7 4.9 5.0 83 1.2 NW 9 15 5 8 1020.0 1020.0 0.2
27/04:30am 7.5 4.7 5.0 84 1.1 NNW 9 15 5 8 1019.8 1019.8 0.2
27/04:00am 7.2 4.3 4.9 85 1.0 NNW 9 13 5 7 1019.8 1019.8 0.2
27/03:30am 7.5 4.2 4.8 83 1.2 NNW 11 17 6 9 1019.8 1019.8 0.2
27/03:00am 7.4 4.2 4.9 84 1.1 NNW 11 13 6 7 1019.9 1019.9 0.2
27/02:30am 7.8 4.9 4.9 82 1.3 NNW 9 15 5 8 1020.1 1020.1 0.2
27/02:00am 8.8 6.1 5.4 79 1.5 NNW 9 13 5 7 1020.3 1020.3 0.2
27/01:30am 9.1 6.0 5.7 79 1.5 NW 11 19 6 10 1020.4 1020.4 0.2
27/01:00am 8.6 5.5 5.4 80 1.4 NW 11 20 6 11 1020.7 1020.7 0.2
27/12:30am 8.7 6.3 5.4 80 1.5 NW 7 13 4 7 1020.9 1020.9 0.2
27/12:00am 9.5 6.9 5.9 78 1.6 NW 9 15 5 8 1020.9 1020.9 0.2
 
Date/Time
EST
Temp
°C
App
Temp
°C
Dew
Point
°C
Rel
Hum
%
Delta-T
°C
Wind Press
QNH
hPa
Press
MSL
hPa
Rain since
9am
mm
Dir  Spd
km/h
Gust
km/h
Spd
kts
Gust
kts
26/11:30pm 10.2 8.0 6.0 75 1.9 WNW 7 17 4 9 1021.0 1021.0 0.2
26/11:00pm 10.0 7.4 6.2 77 1.8 NW 9 15 5 8 1021.0 1021.0 0.2
26/10:30pm 10.2 8.1 6.5 78 1.7 NW 7 15 4 8 1020.9 1020.9 0.2
26/10:00pm 10.2 7.8 7.1 81 1.5 WNW 9 13 5 7 1021.0 1021.0 0.2
26/09:30pm 10.3 6.7 6.8 79 1.6 WNW 15 22 8 12 1020.9 1020.9 0.2
26/09:00pm 10.4 7.8 6.2 75 1.9 WNW 9 15 5 8 1020.8 1020.8 0.2
26/08:30pm 10.3 8.0 5.7 73 2.1 WNW 7 13 4 7 1020.7 1020.7 0.2
26/08:00pm 10.0 7.8 6.0 76 1.8 NW 7 13 4 7 1020.6 1020.6 0.2
26/07:30pm 8.9 6.6 5.6 80 1.5 NNW 7 9 4 5 1020.6 1020.6 0.2
26/07:00pm 8.3 6.1 5.1 80 1.4 NW 6 7 3 4 1020.5 1020.5 0.2
26/06:30pm 9.5 7.2 5.7 77 1.7 NW 7 13 4 7 1020.3 1020.3 0.2
26/06:00pm 10.2 7.2 5.8 74 2.0 NW 11 19 6 10 1019.9 1019.9 0.2
26/05:30pm 11.0 8.3 5.7 70 2.4 WNW 9 19 5 10 1019.9 1019.9 0.2

Other Formats:

Comma delimited format used in spreadsheet applications
http://www.bom.gov.au/fwo/IDV60801/IDV60801.94886.axf

JavaScript Object Notation format (JSON) in row-major order
http://www.bom.gov.au/fwo/IDV60801/IDV60801.94886.json